createdAt,value
2022-09-23T00:01:05.173Z,13.57
2022-09-23T00:03:33.241Z,13.33
2022-09-23T00:06:14.954Z,11.85
2022-09-23T00:08:42.936Z,11.75
2022-09-23T00:11:12.295Z,14.38
2022-09-23T00:13:40.695Z,13.02
2022-09-23T00:16:10.550Z,12.03
2022-09-23T00:18:37.395Z,12.25
2022-09-23T00:21:05.382Z,12.15
2022-09-23T00:23:33.003Z,10.75
2022-09-23T00:26:02.402Z,10.45
2022-09-23T00:28:30.041Z,10.10
2022-09-23T00:30:56.829Z,10.88
2022-09-23T00:33:23.716Z,9.65
2022-09-23T00:35:50.373Z,11.52
2022-09-23T00:38:17.121Z,10.65
2022-09-23T00:40:46.038Z,11.40
2022-09-23T00:43:15.060Z,10.70
2022-09-23T00:45:50.385Z,9.82
2022-09-23T00:48:20.420Z,9.75
2022-09-23T00:50:54.110Z,10.05
2022-09-23T00:53:26.517Z,9.47
2022-09-23T00:56:02.140Z,9.75
2022-09-23T00:58:32.785Z,10.07
2022-09-23T01:01:00.633Z,9.75
2022-09-23T01:03:28.040Z,9.88
2022-09-23T01:05:56.677Z,10.13
2022-09-23T01:08:24.423Z,10.48
2022-09-23T01:10:51.078Z,10.48
2022-09-23T01:13:32.045Z,10.18
2022-09-23T01:16:08.352Z,10.32
2022-09-23T01:18:48.472Z,10.20
2022-09-23T01:21:36.607Z,10.07
2022-09-23T01:24:09.529Z,9.90
2022-09-23T01:26:57.800Z,9.65
2022-09-23T01:29:45.089Z,10.30
2022-09-23T01:32:31.104Z,10.37
2022-09-23T01:35:23.724Z,10.70
2022-09-23T01:38:06.226Z,10.32
2022-09-23T01:40:49.101Z,9.25
2022-09-23T01:43:38.775Z,10.40
2022-09-23T01:46:21.566Z,10.10
2022-09-23T01:48:57.806Z,9.57
2022-09-23T01:51:29.607Z,9.70
2022-09-23T01:54:18.677Z,10.05
2022-09-23T01:56:52.270Z,9.88
2022-09-23T01:59:26.513Z,9.70
2022-09-23T02:02:15.251Z,9.93
2022-09-23T02:04:51.553Z,8.60
2022-09-23T02:07:24.507Z,9.82
2022-09-23T02:10:11.735Z,9.60
2022-09-23T02:12:40.243Z,9.33
2022-09-23T02:15:15.450Z,10.18
2022-09-23T02:17:55.582Z,9.55
2022-09-23T02:20:28.487Z,8.77
2022-09-23T02:23:03.048Z,8.60
2022-09-23T02:25:38.465Z,9.00
2022-09-23T02:28:19.983Z,8.25
2022-09-23T02:30:58.778Z,8.30
2022-09-23T02:33:36.545Z,8.27
2022-09-23T02:36:14.162Z,8.48
2022-09-23T02:38:51.087Z,8.77
2022-09-23T02:41:23.309Z,8.10
2022-09-23T02:44:07.674Z,7.22
2022-09-23T02:46:35.733Z,8.07
2022-09-23T02:49:17.450Z,7.85
2022-09-23T02:51:45.426Z,8.27
2022-09-23T02:54:16.831Z,9.20
2022-09-23T02:56:43.721Z,8.40
2022-09-23T02:59:11.999Z,8.27
2022-09-23T03:01:48.916Z,8.38
2022-09-23T03:04:35.424Z,7.87
2022-09-23T03:07:33.932Z,7.32
2022-09-23T03:10:20.643Z,8.93
2022-09-23T03:13:02.367Z,8.45
2022-09-23T03:15:38.557Z,8.65
2022-09-23T03:18:08.509Z,8.60
2022-09-23T03:21:03.175Z,8.02
2022-09-23T03:23:35.686Z,8.70
2022-09-23T03:26:08.515Z,9.10
2022-09-23T03:28:37.559Z,7.82
2022-09-23T03:31:05.750Z,8.30
2022-09-23T03:33:34.653Z,8.13
2022-09-23T03:36:25.173Z,8.65
2022-09-23T03:38:58.413Z,8.52
2022-09-23T03:41:31.553Z,8.23
2022-09-23T03:43:59.825Z,8.83
2022-09-23T03:46:29.838Z,9.25
2022-09-23T03:49:32.808Z,8.52
2022-09-23T03:52:00.119Z,8.27
2022-09-23T03:54:29.794Z,7.07
2022-09-23T03:57:00.937Z,8.13
2022-09-23T03:59:28.102Z,8.02
2022-09-23T04:01:55.586Z,8.18
2022-09-23T04:04:22.440Z,7.97
2022-09-23T04:06:49.118Z,8.27
2022-09-23T04:09:15.846Z,7.93
2022-09-23T04:11:42.505Z,7.78
2022-09-23T04:14:10.465Z,8.27
2022-09-23T04:16:37.342Z,7.57
2022-09-23T04:19:05.101Z,7.53
2022-09-23T04:21:32.514Z,7.73
2022-09-23T04:23:59.291Z,7.55
2022-09-23T04:26:25.974Z,7.07
2022-09-23T04:28:54.464Z,7.43
2022-09-23T04:31:23.762Z,7.05
2022-09-23T04:33:52.516Z,7.33
2022-09-23T04:36:19.500Z,7.10
2022-09-23T04:38:47.450Z,7.38
2022-09-23T04:41:14.807Z,6.93
2022-09-23T04:43:42.277Z,7.45
2022-09-23T04:46:11.155Z,7.67
2022-09-23T04:48:39.092Z,7.22
2022-09-23T04:51:11.707Z,7.60
2022-09-23T04:53:41.818Z,7.32
2022-09-23T04:56:11.825Z,7.95
2022-09-23T04:58:39.914Z,8.03
2022-09-23T05:01:10.509Z,7.10
2022-09-23T05:03:38.071Z,7.07
2022-09-23T05:06:05.149Z,7.68
2022-09-23T05:08:31.993Z,7.53
2022-09-23T05:11:00.151Z,8.30
2022-09-23T05:13:27.332Z,8.50
2022-09-23T05:16:01.825Z,8.18
2022-09-23T05:18:31.197Z,8.43
2022-09-23T05:20:58.381Z,8.02
2022-09-23T05:23:25.925Z,7.83
2022-09-23T05:26:01.576Z,8.63
2022-09-23T05:28:31.234Z,9.38
2022-09-23T05:31:19.711Z,8.40
2022-09-23T05:33:55.789Z,8.65
2022-09-23T05:36:23.421Z,8.80
2022-09-23T05:38:51.207Z,8.80
2022-09-23T05:41:20.568Z,9.13
2022-09-23T05:43:47.353Z,8.32
2022-09-23T05:46:16.458Z,8.02
2022-09-23T05:48:47.160Z,9.00
2022-09-23T05:51:17.159Z,9.20
2022-09-23T05:53:47.620Z,9.30
2022-09-23T05:56:16.501Z,9.38
2022-09-23T05:58:43.780Z,9.38
2022-09-23T06:01:21.749Z,9.13
2022-09-23T06:03:49.677Z,9.70
2022-09-23T06:06:18.379Z,9.13
2022-09-23T06:08:46.555Z,9.27
2022-09-23T06:11:14.240Z,9.20
2022-09-23T06:13:41.476Z,10.77
2022-09-23T06:16:11.630Z,8.98
2022-09-23T06:18:40.921Z,10.30
2022-09-23T06:21:10.052Z,10.45
2022-09-23T06:23:39.720Z,9.27
2022-09-23T06:26:10.236Z,8.97
2022-09-23T06:28:39.447Z,9.73
2022-09-23T06:31:13.277Z,10.27
2022-09-23T06:33:41.152Z,11.07
2022-09-23T06:36:08.822Z,10.18
2022-09-23T06:38:39.577Z,9.80
2022-09-23T06:41:06.998Z,11.45
2022-09-23T06:43:33.993Z,9.38
2022-09-23T06:46:02.137Z,10.38
2022-09-23T06:48:29.472Z,9.68
2022-09-23T06:51:02.397Z,10.63
2022-09-23T06:53:32.364Z,10.23
2022-09-23T06:56:11.525Z,10.93
2022-09-23T06:58:39.138Z,11.60
2022-09-23T07:01:09.378Z,11.23
2022-09-23T07:03:36.998Z,12.43
2022-09-23T07:06:05.001Z,10.75
2022-09-23T07:08:35.803Z,10.88
2022-09-23T07:11:05.407Z,10.77
2022-09-23T07:13:33.482Z,11.13
2022-09-23T07:16:02.107Z,10.57
2022-09-23T07:18:36.191Z,10.80
2022-09-23T07:21:14.914Z,9.45
2022-09-23T07:23:42.576Z,10.68
2022-09-23T07:26:09.435Z,9.88
2022-09-23T07:28:36.952Z,11.43
2022-09-23T07:31:09.723Z,10.27
2022-09-23T07:33:38.031Z,10.43
2022-09-23T07:36:12.197Z,11.63
2022-09-23T07:38:44.437Z,9.90
2022-09-23T07:41:17.692Z,10.10
2022-09-23T07:43:45.540Z,9.68
2022-09-23T07:46:16.304Z,11.18
2022-09-23T07:48:44.543Z,9.73
2022-09-23T07:51:21.112Z,10.70
2022-09-23T07:53:50.534Z,11.17
2022-09-23T07:56:19.277Z,10.80
2022-09-23T07:58:59.991Z,10.43
2022-09-23T08:01:29.355Z,10.85
2022-09-23T08:04:05.906Z,10.85
2022-09-23T08:06:32.725Z,10.30
2022-09-23T08:09:00.915Z,11.38
2022-09-23T08:11:28.165Z,10.20
2022-09-23T08:13:54.918Z,10.23
2022-09-23T08:16:22.020Z,9.82
2022-09-23T08:18:48.838Z,10.43
2022-09-23T08:21:21.367Z,10.35
2022-09-23T08:23:48.586Z,10.15
2022-09-23T08:26:20.878Z,9.95
2022-09-23T08:28:49.285Z,9.50
2022-09-23T08:31:16.055Z,9.37
2022-09-23T08:33:43.058Z,9.35
2022-09-23T08:36:09.732Z,9.32
2022-09-23T08:38:37.438Z,8.85
2022-09-23T08:41:39.719Z,8.93
2022-09-23T08:44:19.256Z,8.73
2022-09-23T08:47:11.601Z,9.55
2022-09-23T08:49:47.881Z,8.00
2022-09-23T08:52:24.037Z,8.32
2022-09-23T08:54:55.150Z,8.68
2022-09-23T08:57:36.785Z,8.57
2022-09-23T09:00:05.267Z,8.35
2022-09-23T09:02:35.148Z,8.20
2022-09-23T09:05:07.877Z,7.95
2022-09-23T09:07:38.336Z,8.23
2022-09-23T09:10:24.597Z,9.10
2022-09-23T09:13:07.380Z,8.57
2022-09-23T09:15:43.169Z,8.77
2022-09-23T09:18:20.759Z,8.35
2022-09-23T09:21:14.540Z,8.23
2022-09-23T09:24:02.044Z,7.70
2022-09-23T09:26:35.228Z,7.57
2022-09-23T09:32:35.185Z,7.63
2022-09-23T09:35:15.557Z,7.75
2022-09-23T09:37:47.545Z,6.50
2022-09-23T09:40:20.131Z,8.13
2022-09-23T09:42:49.520Z,8.05
2022-09-23T09:45:36.053Z,8.82
2022-09-23T09:48:17.529Z,6.93
2022-09-23T09:50:50.150Z,8.10
2022-09-23T09:53:21.743Z,6.55
2022-09-23T09:56:08.649Z,7.60
2022-09-23T09:58:44.219Z,7.78
2022-09-23T10:01:26.667Z,7.47
2022-09-23T10:04:03.634Z,8.20
2022-09-23T10:06:33.191Z,7.80
2022-09-23T10:09:13.887Z,7.25
2022-09-23T10:11:41.658Z,7.03
2022-09-23T10:14:20.760Z,7.40
2022-09-23T10:17:05.547Z,7.43
2022-09-23T10:19:34.781Z,6.20
2022-09-23T10:22:21.184Z,6.25
2022-09-23T10:24:50.385Z,6.05
2022-09-23T10:27:31.284Z,7.07
2022-09-23T10:30:23.604Z,5.67
2022-09-23T10:32:53.046Z,6.25
2022-09-23T10:35:22.460Z,5.97
2022-09-23T10:38:00.319Z,4.95
2022-09-23T10:40:50.642Z,5.38
2022-09-23T10:44:09.930Z,4.60
2022-09-23T10:46:38.871Z,6.10
2022-09-23T10:49:19.400Z,5.35
2022-09-23T10:51:55.172Z,5.15
2022-09-23T10:55:05.517Z,5.72
2022-09-23T10:57:59.791Z,5.83
2022-09-23T11:01:06.459Z,5.93
2022-09-23T11:03:51.738Z,6.20
2022-09-23T11:06:21.214Z,6.30
2022-09-23T11:09:15.537Z,6.47
2022-09-23T11:12:24.076Z,6.40
2022-09-23T11:14:57.058Z,6.20
2022-09-23T11:17:42.715Z,5.63
2022-09-23T11:20:31.278Z,5.72
2022-09-23T11:23:07.664Z,6.05
2022-09-23T11:26:04.582Z,6.23
2022-09-23T11:28:57.266Z,6.30
2022-09-23T11:31:51.011Z,6.25
2022-09-23T11:34:44.690Z,6.53
2022-09-23T11:37:20.120Z,6.10
2022-09-23T11:40:19.379Z,6.00
2022-09-23T11:42:55.754Z,5.57
2022-09-23T11:45:32.275Z,6.40
2022-09-23T11:48:06.316Z,6.28
2022-09-23T11:50:42.666Z,5.90
2022-09-23T11:53:18.517Z,6.00
2022-09-23T11:55:58.384Z,6.47
2022-09-23T11:58:31.394Z,5.53
2022-09-23T12:01:07.502Z,5.55
2022-09-23T12:04:17.504Z,5.38
2022-09-23T12:06:52.437Z,4.90
2022-09-23T12:09:41.318Z,5.10
2022-09-23T12:12:31.517Z,4.72
2022-09-23T12:15:27.837Z,4.50
2022-09-23T12:18:25.443Z,4.30
2022-09-23T12:21:38.801Z,4.60
2022-09-23T12:24:22.412Z,4.25
2022-09-23T12:26:55.286Z,4.35
2022-09-23T12:29:25.644Z,3.35
2022-09-23T12:31:52.994Z,4.72
2022-09-23T12:34:41.516Z,4.50
2022-09-23T12:37:08.246Z,4.40
2022-09-23T12:39:38.434Z,4.32
2022-09-23T12:42:14.496Z,3.40
2022-09-23T12:44:44.097Z,4.28
2022-09-23T12:47:25.683Z,3.50
2022-09-23T12:49:53.154Z,3.40
2022-09-23T12:52:19.828Z,3.10
2022-09-23T12:54:49.550Z,3.00
2022-09-23T12:57:34.412Z,2.80
2022-09-23T13:00:11.535Z,3.23
2022-09-23T13:02:47.421Z,2.67
2022-09-23T13:05:35.633Z,3.00
2022-09-23T13:08:24.215Z,3.03
2022-09-23T13:10:56.466Z,2.85
2022-09-23T13:13:25.766Z,3.10
2022-09-23T13:15:53.959Z,3.30
2022-09-23T13:18:20.608Z,3.13
2022-09-23T13:20:48.775Z,3.13
2022-09-23T13:23:31.362Z,3.17
2022-09-23T13:26:01.380Z,3.50
2022-09-23T13:28:41.630Z,3.63
2022-09-23T13:31:16.202Z,3.92
2022-09-23T13:33:48.821Z,3.42
2022-09-23T13:36:19.068Z,2.90
2022-09-23T13:38:46.888Z,3.60
2022-09-23T13:41:28.317Z,3.92
2022-09-23T13:43:58.654Z,3.40
2022-09-23T13:46:27.370Z,3.78
2022-09-23T13:48:55.320Z,3.85
2022-09-23T13:51:30.025Z,3.87
2022-09-23T13:54:01.562Z,3.83
2022-09-23T13:56:31.445Z,4.38
2022-09-23T13:59:35.712Z,3.75
2022-09-23T14:02:11.874Z,4.22
2022-09-23T14:04:39.293Z,4.23
2022-09-23T14:07:08.845Z,3.67
2022-09-23T14:09:36.954Z,3.58
2022-09-23T14:12:06.409Z,3.47
2022-09-23T14:14:35.863Z,3.70
2022-09-23T14:17:03.576Z,3.83
2022-09-23T14:19:31.366Z,3.63
2022-09-23T14:21:58.783Z,3.33
2022-09-23T14:24:32.279Z,4.03
2022-09-23T14:27:06.871Z,4.18
2022-09-23T14:29:36.759Z,4.00
2022-09-23T14:32:14.326Z,3.83
2022-09-23T14:35:19.482Z,3.90
2022-09-23T14:38:11.075Z,4.20
2022-09-23T14:40:50.756Z,3.50
2022-09-23T14:43:23.594Z,3.77
2022-09-23T14:45:56.854Z,3.70
2022-09-23T14:48:23.553Z,3.85
2022-09-23T14:50:55.619Z,3.00
2022-09-23T14:53:22.548Z,4.57
2022-09-23T14:55:58.703Z,4.20
2022-09-23T14:58:29.391Z,4.18
2022-09-23T15:00:59.452Z,4.13
2022-09-23T15:03:29.119Z,5.13
2022-09-23T15:06:09.129Z,4.60
2022-09-23T15:08:36.845Z,5.40
2022-09-23T15:11:08.096Z,6.10
2022-09-23T15:13:41.321Z,5.10
2022-09-23T15:16:08.273Z,5.80
2022-09-23T15:18:37.532Z,5.32
2022-09-23T15:21:07.246Z,5.30
2022-09-23T15:23:50.298Z,5.43
2022-09-23T15:26:18.709Z,6.63
2022-09-23T15:28:46.630Z,6.63
2022-09-23T15:31:15.883Z,6.57
2022-09-23T15:33:50.532Z,6.43
2022-09-23T15:36:20.119Z,5.75
2022-09-23T15:38:47.662Z,6.00
2022-09-23T15:41:15.276Z,6.47
2022-09-23T15:43:42.066Z,6.35
2022-09-23T15:46:33.587Z,6.33
2022-09-23T15:49:02.022Z,5.65
2022-09-23T15:51:28.915Z,4.75
2022-09-23T15:53:56.305Z,5.13
2022-09-23T15:56:24.311Z,5.85
2022-09-23T15:58:51.059Z,5.57
2022-09-23T16:01:27.723Z,6.50
2022-09-23T16:03:55.627Z,6.38
2022-09-23T16:06:24.252Z,7.03
2022-09-23T16:08:52.220Z,7.20
2022-09-23T16:11:22.801Z,6.23
2022-09-23T16:13:50.298Z,5.82
2022-09-23T16:16:19.727Z,7.07
2022-09-23T16:18:48.289Z,7.35
2022-09-23T16:21:18.717Z,7.45
2022-09-23T16:23:49.150Z,6.70
2022-09-23T16:26:21.402Z,6.13
2022-09-23T16:28:50.179Z,7.22
2022-09-23T16:31:17.014Z,7.07
2022-09-23T16:33:48.300Z,6.78
2022-09-23T16:36:35.814Z,7.43
2022-09-23T16:39:05.056Z,7.68
2022-09-23T16:41:32.448Z,8.85
2022-09-23T16:44:00.848Z,7.90
2022-09-23T16:46:29.158Z,7.70
2022-09-23T16:48:57.435Z,8.30
2022-09-23T16:51:37.967Z,8.55
2022-09-23T16:54:13.090Z,8.63
2022-09-23T16:56:44.914Z,8.63
2022-09-23T16:59:12.890Z,7.93
2022-09-23T17:01:58.581Z,9.17
2022-09-23T17:04:25.428Z,9.07
2022-09-23T17:06:53.434Z,10.32
2022-09-23T17:09:22.247Z,9.32
2022-09-23T17:11:56.266Z,10.05
2022-09-23T17:14:22.934Z,10.00
2022-09-23T17:16:49.661Z,10.20
2022-09-23T17:19:16.402Z,9.93
2022-09-23T17:21:43.058Z,9.40
2022-09-23T17:24:10.084Z,9.50
2022-09-23T17:26:38.172Z,10.67
2022-09-23T17:29:04.902Z,12.20
2022-09-23T17:31:31.626Z,11.93
2022-09-23T17:33:58.342Z,10.00
2022-09-23T17:36:25.219Z,10.73
2022-09-23T17:38:53.735Z,11.87
2022-09-23T17:41:21.001Z,11.77
2022-09-23T17:43:48.458Z,12.45
2022-09-23T17:46:18.645Z,12.93
2022-09-23T17:48:46.600Z,11.35
2022-09-23T17:51:16.320Z,14.37
2022-09-23T17:53:45.430Z,17.83
2022-09-23T17:56:15.757Z,19.45
2022-09-23T17:58:43.374Z,16.90
2022-09-23T18:01:12.030Z,16.23
2022-09-23T18:03:39.487Z,15.80
2022-09-23T18:06:20.754Z,19.85
2022-09-23T18:08:49.254Z,19.95
2022-09-23T18:11:26.922Z,22.55
2022-09-23T18:13:59.664Z,19.10
2022-09-23T18:16:35.019Z,22.23
2022-09-23T18:19:03.288Z,21.20
2022-09-23T18:21:35.398Z,18.55
2022-09-23T18:26:50.208Z,17.52
2022-09-23T18:29:17.157Z,17.50
2022-09-23T18:31:44.890Z,16.33
2022-09-23T18:34:13.846Z,17.65
2022-09-23T18:36:40.594Z,17.58
2022-09-23T18:39:07.737Z,15.32
2022-09-23T18:41:35.085Z,16.20
2022-09-23T18:44:02.664Z,16.52
2022-09-23T18:46:30.318Z,15.82
2022-09-23T18:49:16.796Z,14.77
2022-09-23T18:51:57.232Z,15.82
2022-09-23T18:54:25.817Z,17.40
2022-09-23T18:56:52.738Z,17.70
2022-09-23T18:59:23.995Z,17.00
2022-09-23T19:01:51.266Z,13.65
2022-09-23T19:04:20.377Z,16.95
2022-09-23T19:06:47.700Z,17.00
2022-09-23T19:09:16.122Z,16.40
2022-09-23T19:11:43.165Z,18.08
2022-09-23T19:14:11.559Z,17.77
2022-09-23T19:16:39.521Z,17.58
2022-09-23T19:19:06.962Z,17.17
2022-09-23T19:21:34.198Z,17.00
2022-09-23T19:24:04.253Z,17.30
2022-09-23T19:26:37.769Z,14.65
2022-09-23T19:29:06.043Z,16.45
2022-09-23T19:31:34.827Z,16.43
2022-09-23T19:34:09.945Z,17.55
2022-09-23T19:36:39.054Z,17.30
2022-09-23T19:39:19.119Z,16.35
2022-09-23T19:41:46.620Z,17.17
2022-09-23T19:44:14.236Z,15.83
2022-09-23T19:46:45.605Z,16.35
2022-09-23T19:49:12.857Z,17.75
2022-09-23T19:51:40.204Z,17.35
2022-09-23T19:54:08.046Z,16.33
2022-09-23T19:56:35.276Z,15.87
2022-09-23T19:59:03.159Z,15.40
2022-09-23T20:01:31.786Z,18.33
2022-09-23T20:03:59.152Z,16.85
2022-09-23T20:06:30.345Z,17.13
2022-09-23T20:08:59.419Z,15.70
2022-09-23T20:11:28.546Z,14.85
2022-09-23T20:14:04.331Z,16.95
2022-09-23T20:16:34.199Z,18.02
2022-09-23T20:19:01.724Z,18.33
2022-09-23T20:21:29.433Z,19.10
2022-09-23T20:23:57.088Z,17.00
2022-09-23T20:26:43.001Z,17.30
2022-09-23T20:29:10.676Z,16.85
2022-09-23T20:31:37.866Z,17.35
2022-09-23T20:34:06.849Z,20.13
2022-09-23T20:36:35.303Z,19.70
2022-09-23T20:39:05.740Z,17.80
2022-09-23T20:41:36.583Z,20.83
2022-09-23T20:44:11.501Z,18.23
2022-09-23T20:46:38.822Z,18.77
2022-09-23T20:49:08.694Z,17.85
2022-09-23T20:51:36.373Z,16.00
2022-09-23T20:54:03.326Z,18.45
2022-09-23T20:56:30.403Z,16.23
2022-09-23T20:59:04.471Z,15.90
2022-09-23T21:01:35.680Z,18.67
2022-09-23T21:04:04.795Z,16.55
2022-09-23T21:06:33.700Z,16.05
2022-09-23T21:09:00.815Z,18.08
2022-09-23T21:11:28.670Z,16.97
2022-09-23T21:13:55.362Z,15.82
2022-09-23T21:16:22.930Z,16.90
2022-09-23T21:18:51.221Z,15.65
2022-09-23T21:21:19.591Z,18.25
2022-09-23T21:23:47.372Z,19.60
2022-09-23T21:26:17.743Z,18.40
2022-09-23T21:28:46.973Z,18.42
2022-09-23T21:31:25.429Z,17.98
2022-09-23T21:33:52.783Z,20.45
2022-09-23T21:36:19.517Z,17.33
2022-09-23T21:38:46.419Z,17.75
2022-09-23T21:41:13.617Z,18.10
2022-09-23T21:43:40.390Z,15.75
2022-09-23T21:46:15.690Z,18.70
2022-09-23T21:48:43.026Z,19.30
2022-09-23T21:51:13.354Z,17.33
2022-09-23T21:53:41.394Z,18.02
2022-09-23T21:56:20.928Z,20.88
2022-09-23T21:58:48.789Z,18.98
2022-09-23T22:01:17.339Z,20.90
2022-09-23T22:03:48.896Z,18.38
2022-09-23T22:06:21.163Z,18.80
2022-09-23T22:09:00.550Z,18.13
2022-09-23T22:11:59.125Z,16.83
2022-09-23T22:14:26.391Z,17.80
2022-09-23T22:16:57.868Z,17.27
2022-09-23T22:19:35.755Z,19.25
2022-09-23T22:22:07.781Z,18.42
2022-09-23T22:24:34.504Z,18.65
2022-09-23T22:27:01.177Z,19.70
2022-09-23T22:29:46.370Z,18.50
2022-09-23T22:32:31.862Z,19.95
2022-09-23T22:34:58.561Z,18.42
2022-09-23T22:37:28.563Z,19.35
2022-09-23T22:39:55.322Z,16.67
2022-09-23T22:42:22.324Z,17.33
2022-09-23T22:44:50.401Z,20.98
2022-09-23T22:47:19.876Z,19.63
2022-09-23T22:49:47.386Z,20.67
2022-09-23T22:52:16.051Z,20.03
2022-09-23T22:54:43.006Z,22.00
2022-09-23T22:57:09.694Z,19.55
2022-09-23T22:59:37.380Z,20.58
2022-09-23T23:02:06.444Z,20.52
2022-09-23T23:04:33.787Z,21.43
2022-09-23T23:07:00.480Z,21.75
2022-09-23T23:09:27.144Z,23.95
2022-09-23T23:11:53.976Z,21.70
2022-09-23T23:14:21.498Z,21.67
2022-09-23T23:16:48.290Z,21.80
2022-09-23T23:19:16.986Z,22.13
2022-09-23T23:21:45.315Z,19.83
2022-09-23T23:24:23.448Z,23.27
2022-09-23T23:26:51.376Z,21.90
2022-09-23T23:29:20.141Z,22.03
2022-09-23T23:31:47.755Z,20.33
2022-09-23T23:34:21.787Z,22.38
2022-09-23T23:36:54.583Z,21.85
2022-09-23T23:39:23.481Z,22.45
2022-09-23T23:41:55.046Z,24.03
2022-09-23T23:44:24.460Z,22.67
2022-09-23T23:46:52.034Z,24.70
2022-09-23T23:49:18.882Z,23.90
2022-09-23T23:51:45.640Z,22.92
2022-09-23T23:54:12.585Z,22.20
2022-09-23T23:56:39.383Z,23.73
2022-09-23T23:59:06.294Z,21.58
